Time;durP1;ratioP1;P1;durP2;ratioP2;P2;SDS_P1;SDS_P2;PMS_P1;PMS_P2;Temp;Humidity;BMP_temperature;BMP_pressure;BME280_temperature;BME280_humidity;BME280_pressure;Samples;Min_cycle;Max_cycle;Signal;HPM_P1;HPM_P2
2023/06/19 00:02:20;;;;;;;7.83;6.80;;;21.60;99.90;;;;;;5095967;28;20239;-55
2023/06/19 00:04:48;;;;;;;7.57;6.90;;;21.70;99.90;;;;;;5096229;28;20220;-56
2023/06/19 00:07:16;;;;;;;8.20;7.40;;;21.70;99.90;;;;;;5088684;28;20231;-56
2023/06/19 00:09:44;;;;;;;7.73;7.03;;;21.60;99.90;;;;;;5075892;28;20229;-56
2023/06/19 00:12:14;;;;;;;9.90;7.23;;;21.60;99.90;;;;;;5075887;28;20730;-55
2023/06/19 00:14:42;;;;;;;7.70;6.90;;;21.60;99.90;;;;;;5075763;28;20227;-56
2023/06/19 00:17:10;;;;;;;7.83;7.03;;;21.60;99.90;;;;;;5084904;28;20236;-55
2023/06/19 00:19:38;;;;;;;8.70;7.63;;;21.50;99.90;;;;;;5107447;28;20611;-55
2023/06/19 00:22:06;;;;;;;8.47;7.67;;;21.60;99.90;;;;;;5108358;28;20221;-55
2023/06/19 00:24:34;;;;;;;7.67;6.87;;;21.50;99.90;;;;;;5104118;28;20237;-55
2023/06/19 00:27:03;;;;;;;8.00;7.20;;;21.50;99.90;;;;;;5087566;28;20236;-55
2023/06/19 00:29:33;;;;;;;7.87;7.17;;;21.50;99.90;;;;;;5095741;28;20225;-55
2023/06/19 00:32:01;;;;;;;7.77;7.17;;;21.50;99.90;;;;;;5095486;28;20230;-55
2023/06/19 00:34:30;;;;;;;7.70;7.00;;;21.50;99.90;;;;;;5095690;28;20219;-55
2023/06/19 00:36:59;;;;;;;8.37;7.57;;;21.40;99.90;;;;;;5090815;28;20276;-55
2023/06/19 00:39:27;;;;;;;7.97;7.17;;;21.40;99.90;;;;;;5075279;28;20288;-55
2023/06/19 00:41:56;;;;;;;8.50;7.70;;;21.40;99.90;;;;;;5075286;28;20355;-55
2023/06/19 00:44:24;;;;;;;8.33;7.37;;;21.30;99.90;;;;;;5075598;28;20735;-54
2023/06/19 00:46:58;;;;;;;8.10;7.30;;;21.30;99.90;;;;;;5073846;28;20772;-55
2023/06/19 00:49:29;;;;;;;8.50;7.70;;;21.30;99.90;;;;;;5107152;28;20646;-55
2023/06/19 00:51:58;;;;;;;8.47;7.37;;;21.30;99.90;;;;;;5109194;28;20263;-55
2023/06/19 00:54:26;;;;;;;7.23;6.63;;;21.30;99.90;;;;;;5085316;28;20276;-54
2023/06/19 00:56:54;;;;;;;8.60;7.43;;;21.30;99.90;;;;;;5076253;28;20335;-56
2023/06/19 00:59:24;;;;;;;8.50;7.67;;;21.20;99.90;;;;;;5095250;28;20264;-54
2023/06/19 01:01:53;;;;;;;8.40;7.60;;;21.20;99.90;;;;;;5076158;28;20226;-56
2023/06/19 01:04:22;;;;;;;7.70;7.00;;;21.20;99.90;;;;;;5091365;28;20689;-55
2023/06/19 01:06:58;;;;;;;7.97;7.23;;;21.20;99.90;;;;;;5091410;28;20231;-56
2023/06/19 01:09:31;;;;;;;7.43;6.83;;;21.10;99.90;;;;;;5084951;28;20233;-54
2023/06/19 01:12:05;;;;;;;8.37;7.57;;;21.20;99.90;;;;;;5092599;28;20211;-53
2023/06/19 01:14:39;;;;;;;8.47;7.57;;;21.10;99.90;;;;;;5075445;28;20218;-55
2023/06/19 01:17:08;;;;;;;8.57;7.63;;;21.10;99.90;;;;;;5069660;28;20638;-55
2023/06/19 01:19:37;;;;;;;7.70;7.00;;;21.10;99.90;;;;;;5102176;28;20241;-55
2023/06/19 01:22:07;;;;;;;8.57;7.53;;;21.10;99.90;;;;;;5094905;28;20696;-55
2023/06/19 01:24:36;;;;;;;8.70;7.50;;;21.10;99.90;;;;;;5075388;28;20229;-56
2023/06/19 01:27:05;;;;;;;8.13;7.13;;;21.10;99.90;;;;;;5086559;28;20218;-55
2023/06/19 01:29:33;;;;;;;8.00;7.30;;;21.10;99.90;;;;;;5094296;28;20229;-56
2023/06/19 01:32:07;;;;;;;8.27;7.47;;;21.00;99.90;;;;;;5084157;28;20230;-55
2023/06/19 01:34:37;;;;;;;8.17;7.37;;;21.00;99.90;;;;;;5094411;28;20228;-54
2023/06/19 01:37:12;;;;;;;8.50;7.80;;;21.00;99.90;;;;;;5091259;28;20223;-56
2023/06/19 01:39:41;;;;;;;8.80;7.90;;;21.00;99.90;;;;;;5082116;28;20230;-54
2023/06/19 01:42:11;;;;;;;8.57;7.77;;;21.10;99.90;;;;;;5084652;28;20276;-55
2023/06/19 01:44:40;;;;;;;8.50;7.60;;;21.10;99.90;;;;;;5094337;28;20237;-55
2023/06/19 01:47:10;;;;;;;9.23;8.20;;;21.10;99.90;;;;;;5098623;28;20229;-55
2023/06/19 01:49:38;;;;;;;7.90;7.20;;;21.10;99.90;;;;;;5087762;28;20313;-55
2023/06/19 01:52:07;;;;;;;8.77;7.90;;;21.10;99.90;;;;;;5101040;28;20581;-55
2023/06/19 01:54:36;;;;;;;8.80;7.90;;;21.20;99.90;;;;;;5097877;28;20214;-55
2023/06/19 01:57:05;;;;;;;8.93;8.00;;;21.10;99.90;;;;;;5085899;28;20222;-56
2023/06/19 01:59:33;;;;;;;8.30;7.60;;;21.10;99.90;;;;;;5075704;28;20272;-56
2023/06/19 02:02:03;;;;;;;8.13;7.43;;;21.10;99.90;;;;;;5075288;28;20257;-55
2023/06/19 02:04:31;;;;;;;7.93;7.27;;;21.00;99.90;;;;;;5072957;28;20246;-56
2023/06/19 02:06:59;;;;;;;9.40;8.50;;;21.00;99.90;;;;;;5090940;28;20226;-56
2023/06/19 02:09:28;;;;;;;8.47;7.67;;;21.00;99.90;;;;;;5093784;28;20233;-55
2023/06/19 02:11:57;;;;;;;9.17;8.37;;;21.00;99.90;;;;;;5067068;28;20305;-55
2023/06/19 02:14:26;;;;;;;7.50;6.90;;;21.10;99.90;;;;;;5092790;28;20317;-55
2023/06/19 02:16:54;;;;;;;7.93;7.20;;;21.00;99.90;;;;;;5086897;28;20692;-56
2023/06/19 02:19:22;;;;;;;9.10;8.30;;;21.00;99.90;;;;;;5104726;28;20734;-55
2023/06/19 02:21:50;;;;;;;8.87;8.00;;;21.00;99.90;;;;;;5078595;28;20579;-56
2023/06/19 02:24:18;;;;;;;8.50;7.67;;;20.90;99.90;;;;;;5100557;28;20674;-56
2023/06/19 02:26:46;;;;;;;8.50;7.80;;;20.90;99.90;;;;;;5093323;28;20219;-56
2023/06/19 02:29:15;;;;;;;8.17;7.47;;;20.90;99.90;;;;;;5093635;28;20219;-56
2023/06/19 02:31:45;;;;;;;8.67;7.77;;;20.90;99.90;;;;;;5091657;28;20234;-55
2023/06/19 02:34:13;;;;;;;8.70;7.90;;;20.90;99.90;;;;;;5093475;28;20304;-55
2023/06/19 02:36:41;;;;;;;8.77;7.50;;;20.90;99.90;;;;;;5093291;28;20264;-55
2023/06/19 02:39:10;;;;;;;8.37;7.40;;;20.80;99.90;;;;;;5074258;28;20227;-56
2023/06/19 02:41:38;;;;;;;9.67;8.60;;;20.80;99.90;;;;;;5054883;28;20234;-55
2023/06/19 02:44:06;;;;;;;8.87;8.07;;;20.80;99.90;;;;;;5093208;28;20275;-56
2023/06/19 02:46:35;;;;;;;8.50;7.73;;;20.80;99.90;;;;;;5093399;28;20229;-55
2023/06/19 02:49:03;;;;;;;8.73;8.00;;;20.80;99.90;;;;;;5103316;28;20256;-53
2023/06/19 02:51:31;;;;;;;8.23;7.53;;;20.80;99.90;;;;;;5110436;28;20229;-54
2023/06/19 02:53:59;;;;;;;9.47;8.10;;;20.80;99.90;;;;;;5099631;28;20699;-54
2023/06/19 02:56:28;;;;;;;8.93;8.23;;;20.70;99.90;;;;;;5092522;28;20305;-55
2023/06/19 02:58:56;;;;;;;10.13;8.43;;;20.80;99.90;;;;;;5093062;28;20218;-57
2023/06/19 03:01:24;;;;;;;9.83;8.20;;;20.70;99.90;;;;;;5074311;28;20234;-54
2023/06/19 03:03:54;;;;;;;9.07;8.23;;;20.70;99.90;;;;;;5092856;28;20272;-55
2023/06/19 03:06:22;;;;;;;8.30;7.60;;;20.70;99.90;;;;;;5075518;28;20616;-56
2023/06/19 03:08:50;;;;;;;9.07;8.17;;;20.80;99.90;;;;;;5088149;28;20301;-55
2023/06/19 03:11:19;;;;;;;8.30;7.60;;;20.80;99.90;;;;;;5074712;28;20227;-55
2023/06/19 03:13:53;;;;;;;9.13;8.33;;;20.70;99.90;;;;;;5092728;28;20225;-55
2023/06/19 03:16:21;;;;;;;9.47;8.43;;;20.70;99.90;;;;;;5092548;28;20313;-55
2023/06/19 03:18:50;;;;;;;9.00;8.10;;;20.60;99.90;;;;;;5083975;28;20333;-55
2023/06/19 03:21:24;;;;;;;8.60;7.80;;;20.70;99.90;;;;;;5081549;28;20234;-55
2023/06/19 03:23:52;;;;;;;9.27;8.37;;;20.70;99.90;;;;;;5101715;28;20222;-56
2023/06/19 03:26:24;;;;;;;8.97;8.10;;;20.70;99.90;;;;;;5074747;28;20237;-55
2023/06/19 03:28:53;;;;;;;8.80;8.00;;;20.60;99.90;;;;;;5074631;28;20240;-55
2023/06/19 03:31:23;;;;;;;9.30;8.40;;;20.60;99.90;;;;;;5074145;28;20261;-54
2023/06/19 03:33:51;;;;;;;8.77;7.93;;;20.60;99.90;;;;;;5074500;28;20559;-56
2023/06/19 03:36:22;;;;;;;8.80;8.10;;;20.60;99.90;;;;;;5074563;28;20719;-54
2023/06/19 03:38:55;;;;;;;8.73;7.87;;;20.60;99.90;;;;;;5058407;28;20219;-55
2023/06/19 03:41:26;;;;;;;9.50;8.50;;;20.60;99.90;;;;;;5054186;28;20571;-55
2023/06/19 03:43:56;;;;;;;9.07;8.17;;;20.60;99.90;;;;;;5054452;28;20227;-56
2023/06/19 03:46:25;;;;;;;9.00;8.30;;;20.60;99.90;;;;;;5054119;28;20238;-55
2023/06/19 03:48:53;;;;;;;9.10;8.23;;;20.70;99.90;;;;;;5083498;28;20233;-56
2023/06/19 03:51:22;;;;;;;8.20;7.50;;;20.70;99.90;;;;;;5112073;28;20245;-55
2023/06/19 03:53:50;;;;;;;9.07;8.30;;;20.60;99.90;;;;;;5095914;28;20307;-56
2023/06/19 03:56:20;;;;;;;9.30;8.50;;;20.70;99.90;;;;;;5092370;28;20245;-56
2023/06/19 03:58:48;;;;;;;9.27;8.47;;;20.70;99.90;;;;;;5092126;28;20214;-55
2023/06/19 04:01:16;;;;;;;10.03;9.10;;;20.70;99.90;;;;;;5073522;28;20219;-55
2023/06/19 04:03:44;;;;;;;8.93;8.17;;;20.70;99.90;;;;;;5090538;28;20700;-56
2023/06/19 04:06:12;;;;;;;9.20;8.30;;;20.70;99.90;;;;;;5077136;28;20275;-56
2023/06/19 04:08:40;;;;;;;9.17;8.23;;;20.70;99.90;;;;;;5068991;28;20246;-56
2023/06/19 04:11:12;;;;;;;9.80;8.73;;;20.70;99.90;;;;;;5074268;28;20233;-56
2023/06/19 04:13:41;;;;;;;10.20;8.43;;;20.80;99.90;;;;;;5088951;28;20228;-55
2023/06/19 04:16:09;;;;;;;13.33;8.73;;;20.80;99.90;;;;;;5080549;28;20227;-56
2023/06/19 04:18:38;;;;;;;12.07;8.60;;;20.80;99.90;;;;;;5096728;28;20221;-55
2023/06/19 04:21:06;;;;;;;11.07;8.33;;;20.80;99.90;;;;;;5088054;28;20226;-56
2023/06/19 04:23:34;;;;;;;10.10;9.00;;;20.80;99.90;;;;;;5061452;28;20713;-56
2023/06/19 04:26:02;;;;;;;9.77;8.77;;;20.80;99.90;;;;;;5091935;28;20720;-55
2023/06/19 04:28:30;;;;;;;9.40;8.50;;;20.90;99.90;;;;;;5073779;28;20268;-56
2023/06/19 04:31:00;;;;;;;9.20;8.37;;;20.80;99.90;;;;;;5092376;28;20238;-55
2023/06/19 04:33:29;;;;;;;9.73;8.83;;;20.80;99.90;;;;;;5095563;28;20213;-54
2023/06/19 04:35:58;;;;;;;9.57;8.33;;;20.90;99.90;;;;;;5095623;28;20218;-56
2023/06/19 04:38:26;;;;;;;9.00;8.07;;;20.80;99.90;;;;;;5077281;28;20314;-55
2023/06/19 04:40:54;;;;;;;10.30;9.23;;;20.80;99.90;;;;;;5057490;28;20237;-55
2023/06/19 04:43:24;;;;;;;9.80;8.80;;;20.90;99.90;;;;;;5081479;28;20218;-56
2023/06/19 04:45:52;;;;;;;10.03;9.03;;;20.90;99.90;;;;;;5095351;28;20228;-56
2023/06/19 04:48:24;;;;;;;9.93;8.70;;;20.90;99.90;;;;;;5095222;28;20246;-54
2023/06/19 04:50:55;;;;;;;14.00;8.73;;;20.90;99.90;;;;;;5092986;28;20215;-56
2023/06/19 04:53:24;;;;;;;9.13;8.30;;;20.90;99.90;;;;;;5077848;28;20655;-54
2023/06/19 04:55:54;;;;;;;8.53;7.80;;;20.90;99.90;;;;;;5096023;28;20218;-56
2023/06/19 04:58:22;;;;;;;9.43;8.53;;;20.90;99.90;;;;;;5093611;28;20586;-55
2023/06/19 05:00:52;;;;;;;9.10;8.33;;;20.90;99.90;;;;;;5086825;28;20234;-55
2023/06/19 05:03:22;;;;;;;9.37;8.47;;;20.90;99.90;;;;;;5094747;28;20589;-54
2023/06/19 05:05:50;;;;;;;10.33;8.57;;;20.80;99.90;;;;;;5094925;28;20214;-56
2023/06/19 05:08:18;;;;;;;9.73;8.40;;;20.90;99.90;;;;;;5087420;28;20309;-55
2023/06/19 05:10:46;;;;;;;9.03;8.30;;;20.90;99.90;;;;;;5094980;28;20689;-55
2023/06/19 05:13:14;;;;;;;9.60;8.60;;;20.90;99.90;;;;;;5091503;28;20268;-56
2023/06/19 05:15:42;;;;;;;9.17;8.30;;;20.90;99.90;;;;;;5084544;28;20227;-56
2023/06/19 05:18:10;;;;;;;9.93;8.93;;;20.80;99.90;;;;;;5083598;28;20758;-56
2023/06/19 05:20:39;;;;;;;10.13;9.20;;;20.80;99.90;;;;;;5075730;28;20291;-55
2023/06/19 05:23:08;;;;;;;9.90;8.93;;;20.80;99.90;;;;;;5074738;28;20320;-55
2023/06/19 05:25:36;;;;;;;8.87;8.07;;;20.90;99.90;;;;;;5077048;28;20581;-55
2023/06/19 05:28:04;;;;;;;9.83;8.87;;;20.80;99.90;;;;;;5075071;28;20226;-54
2023/06/19 05:30:34;;;;;;;9.50;8.63;;;20.70;99.90;;;;;;5076659;28;20240;-54
2023/06/19 05:33:02;;;;;;;9.90;8.87;;;20.60;99.90;;;;;;5078344;28;21412;-55
2023/06/19 05:35:31;;;;;;;10.73;8.63;;;20.60;99.90;;;;;;5077092;28;20301;-55
2023/06/19 05:38:01;;;;;;;13.43;9.17;;;20.40;99.90;;;;;;5075857;28;20309;-53
2023/06/19 05:40:29;;;;;;;9.67;8.67;;;20.40;99.90;;;;;;5077638;28;20230;-50
2023/06/19 05:42:57;;;;;;;9.77;8.87;;;20.30;99.90;;;;;;5077763;28;20242;-52
2023/06/19 05:45:25;;;;;;;9.70;8.80;;;20.30;99.90;;;;;;5078809;28;20304;-55
2023/06/19 05:47:53;;;;;;;9.40;8.40;;;20.20;99.90;;;;;;5076546;28;20796;-54
2023/06/19 05:50:21;;;;;;;10.57;9.47;;;20.20;99.90;;;;;;5077470;28;20249;-55
2023/06/19 05:52:49;;;;;;;10.37;9.40;;;20.20;99.90;;;;;;5076611;28;20231;-54
2023/06/19 05:55:19;;;;;;;9.43;8.53;;;20.20;99.90;;;;;;5077158;28;20777;-55
2023/06/19 05:57:47;;;;;;;9.03;8.23;;;20.20;99.90;;;;;;5075849;28;20227;-55
2023/06/19 06:00:16;;;;;;;9.80;8.90;;;20.30;99.90;;;;;;5076084;28;20218;-55
2023/06/19 06:02:44;;;;;;;9.80;8.83;;;20.30;99.90;;;;;;5076002;28;20245;-54
2023/06/19 06:05:12;;;;;;;8.77;7.97;;;20.30;99.90;;;;;;5079091;28;20287;-54
2023/06/19 06:07:41;;;;;;;10.20;9.30;;;20.30;99.90;;;;;;5077374;28;20226;-55
2023/06/19 06:10:10;;;;;;;9.53;8.67;;;20.20;99.90;;;;;;5081732;28;21407;-54
2023/06/19 06:12:39;;;;;;;9.60;8.70;;;20.30;99.90;;;;;;5079207;28;20241;-54
2023/06/19 06:15:08;;;;;;;9.27;8.47;;;20.30;99.90;;;;;;5080214;28;20225;-56
2023/06/19 06:17:36;;;;;;;8.90;8.00;;;20.30;99.90;;;;;;5076764;28;20219;-54
2023/06/19 06:20:08;;;;;;;9.77;8.97;;;20.40;99.90;;;;;;5081209;28;20741;-54
2023/06/19 06:22:37;;;;;;;10.43;9.53;;;20.50;99.90;;;;;;5079376;28;20317;-55
2023/06/19 06:25:06;;;;;;;9.63;8.67;;;20.50;99.90;;;;;;5080765;28;20233;-51
2023/06/19 06:27:36;;;;;;;10.17;9.10;;;20.40;99.90;;;;;;5078332;28;20626;-54
2023/06/19 06:30:06;;;;;;;9.87;9.07;;;20.40;99.90;;;;;;5082041;28;20230;-55
2023/06/19 06:32:34;;;;;;;10.53;9.63;;;20.30;99.90;;;;;;5078939;28;20234;-55
2023/06/19 06:35:03;;;;;;;10.63;9.53;;;20.30;99.90;;;;;;5079160;28;20601;-54
2023/06/19 06:37:31;;;;;;;10.17;9.27;;;20.20;99.90;;;;;;5078575;28;20699;-55
2023/06/19 06:40:00;;;;;;;11.40;9.47;;;20.20;99.90;;;;;;5079304;28;20693;-54
2023/06/19 06:42:28;;;;;;;10.80;9.90;;;20.20;99.90;;;;;;5078428;28;20242;-55
2023/06/19 06:44:56;;;;;;;10.10;9.20;;;20.10;99.90;;;;;;5078664;28;20234;-54
2023/06/19 06:47:25;;;;;;;11.00;10.10;;;20.10;99.90;;;;;;5074844;28;20585;-54
2023/06/19 06:49:53;;;;;;;10.00;9.00;;;20.10;99.90;;;;;;5079647;28;20284;-55
2023/06/19 06:52:21;;;;;;;10.90;9.93;;;20.20;99.90;;;;;;5077745;28;20230;-53
2023/06/19 06:54:49;;;;;;;10.83;9.83;;;20.20;99.90;;;;;;5058392;28;20308;-54
2023/06/19 06:57:17;;;;;;;9.83;9.03;;;20.20;99.90;;;;;;5076737;28;20227;-55
2023/06/19 06:59:45;;;;;;;10.53;9.47;;;20.20;99.90;;;;;;5078663;28;20231;-54
2023/06/19 07:02:14;;;;;;;10.00;9.10;;;20.30;99.90;;;;;;5080911;28;20234;-52
2023/06/19 07:04:43;;;;;;;9.50;8.80;;;20.40;99.90;;;;;;5078227;28;20872;-55
2023/06/19 07:07:11;;;;;;;10.50;9.50;;;20.40;99.90;;;;;;5077755;28;20258;-54
2023/06/19 07:09:39;;;;;;;10.77;9.77;;;20.40;99.90;;;;;;5081623;28;21084;-55
2023/06/19 07:12:08;;;;;;;10.63;9.67;;;20.50;99.90;;;;;;5080569;28;20305;-56
2023/06/19 07:14:36;;;;;;;11.70;10.50;;;20.50;99.90;;;;;;5078883;28;20635;-56
2023/06/19 07:17:06;;;;;;;10.53;9.47;;;20.50;99.90;;;;;;5077760;28;20642;-54
2023/06/19 07:19:35;;;;;;;11.67;10.03;;;20.60;99.90;;;;;;5079621;28;20246;-56
2023/06/19 07:22:05;;;;;;;11.03;10.00;;;20.70;99.90;;;;;;5079713;28;20236;-54
2023/06/19 07:24:33;;;;;;;10.90;9.90;;;20.80;99.90;;;;;;5078524;28;20601;-54
2023/06/19 07:27:01;;;;;;;10.80;9.70;;;20.90;99.90;;;;;;5079343;28;20888;-55
2023/06/19 07:29:29;;;;;;;10.70;9.70;;;21.00;99.90;;;;;;5079815;28;20229;-52
2023/06/19 07:31:57;;;;;;;10.23;9.43;;;21.10;99.90;;;;;;5076080;28;20241;-54
2023/06/19 07:34:25;;;;;;;10.77;9.87;;;21.20;99.90;;;;;;5078504;28;20217;-54
2023/06/19 07:36:53;;;;;;;10.43;9.53;;;21.20;99.90;;;;;;5075285;28;20229;-51
2023/06/19 07:39:23;;;;;;;10.70;9.70;;;21.30;99.90;;;;;;5075232;28;20261;-55
2023/06/19 07:41:51;;;;;;;10.93;9.93;;;21.60;99.90;;;;;;5076709;28;20677;-52
2023/06/19 07:44:20;;;;;;;10.87;9.77;;;22.00;99.90;;;;;;5080366;28;20226;-55
2023/06/19 07:46:48;;;;;;;10.80;9.80;;;22.40;99.90;;;;;;5075814;28;20241;-50
2023/06/19 07:49:16;;;;;;;11.33;10.33;;;22.70;99.90;;;;;;5075708;28;20235;-55
2023/06/19 07:51:44;;;;;;;10.70;9.70;;;22.80;99.90;;;;;;5076798;28;20228;-53
2023/06/19 07:54:13;;;;;;;10.63;9.57;;;22.80;99.90;;;;;;5078042;28;20232;-53
2023/06/19 07:56:43;;;;;;;10.50;9.50;;;23.00;99.90;;;;;;5077174;28;20248;-55
2023/06/19 07:59:11;;;;;;;10.60;9.50;;;23.10;99.90;;;;;;5072628;28;20242;-53
2023/06/19 08:01:39;;;;;;;10.37;9.03;;;23.50;99.90;;;;;;5076891;28;20269;-52
2023/06/19 08:04:07;;;;;;;10.17;9.10;;;23.80;99.90;;;;;;5077151;28;20222;-54
2023/06/19 08:06:35;;;;;;;10.37;9.43;;;24.10;99.90;;;;;;5080077;28;20597;-54
2023/06/19 08:09:03;;;;;;;10.33;9.40;;;24.40;99.90;;;;;;5077357;28;20559;-54
2023/06/19 08:11:32;;;;;;;9.80;8.87;;;24.60;99.90;;;;;;5080284;28;20237;-54
2023/06/19 08:14:01;;;;;;;10.13;9.07;;;24.80;99.90;;;;;;5083019;28;20622;-53
2023/06/19 08:16:29;;;;;;;9.63;8.77;;;24.80;99.90;;;;;;5084942;28;20233;-54
2023/06/19 08:18:57;;;;;;;9.53;8.73;;;24.80;99.90;;;;;;5064699;28;20324;-54
2023/06/19 08:21:25;;;;;;;9.50;8.60;;;25.00;99.90;;;;;;5084101;28;20232;-54
2023/06/19 08:23:53;;;;;;;9.20;8.30;;;25.30;99.90;;;;;;5082533;28;20263;-52
2023/06/19 08:26:21;;;;;;;9.10;8.37;;;25.60;99.90;;;;;;5081664;28;20228;-55
2023/06/19 08:28:49;;;;;;;9.67;8.67;;;25.80;99.90;;;;;;5081254;28;21110;-54
2023/06/19 08:31:19;;;;;;;8.33;7.60;;;26.50;99.90;;;;;;5082857;28;21680;-55
2023/06/19 08:33:49;;;;;;;9.50;8.50;;;27.20;99.90;;;;;;5084489;28;20224;-56
2023/06/19 08:36:21;;;;;;;8.80;7.87;;;27.50;99.90;;;;;;5082863;28;20712;-55
2023/06/19 08:38:50;;;;;;;9.10;8.30;;;28.10;99.90;;;;;;5080413;28;20260;-54
2023/06/19 08:41:19;;;;;;;8.20;7.50;;;28.60;99.90;;;;;;5079654;28;20991;-55
2023/06/19 08:43:47;;;;;;;8.93;8.03;;;28.50;99.90;;;;;;5078388;28;20224;-55
2023/06/19 08:46:17;;;;;;;8.60;7.80;;;28.90;99.90;;;;;;5061184;28;20241;-54
2023/06/19 08:48:48;;;;;;;8.60;7.80;;;29.50;99.90;;;;;;5058592;28;20283;-54
2023/06/19 08:51:16;;;;;;;8.07;7.37;;;29.20;99.90;;;;;;5078327;28;20710;-55
2023/06/19 08:53:50;;;;;;;9.37;8.57;;;29.10;99.90;;;;;;5080680;28;20598;-52
2023/06/19 08:56:18;;;;;;;8.37;7.57;;;28.60;99.90;;;;;;5079029;28;20225;-55
2023/06/19 08:58:46;;;;;;;8.77;7.33;;;28.50;99.90;;;;;;5078037;28;21836;-55
2023/06/19 09:01:18;;;;;;;8.23;7.43;;;28.60;99.90;;;;;;5061293;28;20715;-56
2023/06/19 09:03:51;;;;;;;7.80;7.10;;;28.70;99.90;;;;;;5078507;28;20367;-55
2023/06/19 09:06:19;;;;;;;9.53;7.60;;;28.60;99.90;;;;;;5079551;28;20624;-53
2023/06/19 09:08:59;;;;;;;8.30;7.60;;;28.70;99.90;;;;;;5079857;28;20226;-54
2023/06/19 09:11:27;;;;;;;8.37;7.67;;;29.10;99.90;;;;;;5082624;28;20312;-52
2023/06/19 09:13:58;;;;;;;8.83;8.03;;;29.50;99.90;;;;;;5082444;28;20238;-54
2023/06/19 09:16:38;;;;;;;8.83;8.03;;;29.50;99.90;;;;;;5080805;28;20316;-55
2023/06/19 09:19:07;;;;;;;8.77;7.90;;;29.10;99.90;;;;;;5078332;28;20238;-55
2023/06/19 09:21:38;;;;;;;10.27;8.03;;;29.20;99.90;;;;;;5082011;28;20234;-55
2023/06/19 09:24:08;;;;;;;8.33;7.53;;;28.90;99.90;;;;;;5081475;28;20705;-54
2023/06/19 09:26:37;;;;;;;8.33;7.53;;;28.80;99.90;;;;;;5067537;28;20253;-55
2023/06/19 09:29:12;;;;;;;8.80;7.93;;;28.80;99.90;;;;;;5063796;28;20611;-51
2023/06/19 09:31:43;;;;;;;8.07;7.47;;;28.70;99.90;;;;;;5080867;28;20772;-52
2023/06/19 09:34:12;;;;;;;8.40;7.50;;;28.70;99.90;;;;;;5081611;28;20227;-53
2023/06/19 09:36:41;;;;;;;10.33;7.83;;;28.80;99.90;;;;;;5081411;28;20277;-53
2023/06/19 09:39:10;;;;;;;7.77;7.07;;;28.90;99.90;;;;;;5080509;28;20222;-55
2023/06/19 09:41:40;;;;;;;8.70;7.47;;;29.20;99.90;;;;;;5080592;28;20250;-55
2023/06/19 09:44:12;;;;;;;8.37;7.47;;;29.90;99.90;;;;;;5082742;28;20302;-56
2023/06/19 09:46:46;;;;;;;7.93;7.10;;;30.20;99.90;;;;;;5081184;28;20752;-55
2023/06/19 09:49:16;;;;;;;7.10;6.50;;;29.90;99.90;;;;;;5080380;28;20223;-54
2023/06/19 09:51:45;;;;;;;7.93;7.23;;;29.80;99.90;;;;;;5067065;28;20778;-55
2023/06/19 09:54:15;;;;;;;7.50;6.80;;;29.80;99.90;;;;;;5080543;28;20234;-55
2023/06/19 09:56:44;;;;;;;8.53;7.07;;;29.80;99.90;;;;;;5080435;28;21571;-53
2023/06/19 09:59:13;;;;;;;6.80;6.20;;;30.20;99.90;;;;;;5079449;28;20222;-50
2023/06/19 10:01:42;;;;;;;7.53;6.83;;;31.20;99.90;;;;;;5080310;28;20728;-53
2023/06/19 10:04:12;;;;;;;7.17;6.47;;;31.90;99.90;;;;;;5082357;28;20793;-54
2023/06/19 10:06:48;;;;;;;7.60;6.90;;;32.70;99.90;;;;;;5080041;28;20222;-56
2023/06/19 10:09:18;;;;;;;8.03;6.27;;;33.80;99.90;;;;;;5078323;28;20233;-56
2023/06/19 10:11:48;;;;;;;7.67;6.57;;;34.10;99.90;;;;;;5078647;28;20229;-55
2023/06/19 10:14:18;;;;;;;6.73;6.03;;;34.00;99.00;;;;;;5078312;28;20240;-56
2023/06/19 10:16:46;;;;;;;6.43;5.83;;;34.50;97.60;;;;;;5060757;28;20589;-54
2023/06/19 10:19:16;;;;;;;6.83;6.13;;;34.40;98.50;;;;;;5076394;28;20257;-53
2023/06/19 10:21:49;;;;;;;6.63;6.13;;;34.00;97.00;;;;;;5077647;28;20233;-51
2023/06/19 10:24:19;;;;;;;6.63;5.97;;;33.80;97.20;;;;;;5078265;28;20233;-55
2023/06/19 10:26:59;;;;;;;7.10;6.50;;;33.40;97.30;;;;;;5078266;28;20260;-54
2023/06/19 10:29:38;;;;;;;7.03;6.33;;;33.20;97.80;;;;;;5076199;28;20227;-53
2023/06/19 10:32:07;;;;;;;6.97;6.27;;;32.70;98.00;;;;;;5079525;28;20593;-53
2023/06/19 10:34:36;;;;;;;6.60;6.10;;;32.70;98.50;;;;;;5080551;28;20301;-55
2023/06/19 10:37:06;;;;;;;7.47;6.07;;;33.00;97.80;;;;;;5077134;28;20226;-54
2023/06/19 10:39:34;;;;;;;6.23;5.73;;;33.20;97.70;;;;;;5077652;28;20712;-53
2023/06/19 10:42:05;;;;;;;6.70;6.10;;;33.70;96.90;;;;;;5077069;28;20727;-52
2023/06/19 10:44:33;;;;;;;6.30;5.70;;;33.40;96.60;;;;;;5077048;28;20228;-54
2023/06/19 10:47:02;;;;;;;6.73;5.70;;;32.80;97.30;;;;;;5078965;28;20230;-55
2023/06/19 10:49:30;;;;;;;6.53;5.87;;;32.70;98.00;;;;;;5081281;28;20689;-53
2023/06/19 10:52:00;;;;;;;6.53;5.93;;;32.40;98.10;;;;;;5076976;28;20710;-55
2023/06/19 10:54:31;;;;;;;6.47;5.87;;;32.10;98.30;;;;;;5076418;28;20249;-53
2023/06/19 10:57:02;;;;;;;6.37;5.87;;;32.00;98.70;;;;;;5076353;28;20225;-54
2023/06/19 10:59:31;;;;;;;7.77;6.40;;;31.80;98.70;;;;;;5077755;28;20681;-50
2023/06/19 11:01:59;;;;;;;7.47;6.13;;;31.40;99.20;;;;;;5076007;28;20667;-54
2023/06/19 11:04:27;;;;;;;6.73;6.03;;;31.20;99.80;;;;;;5078707;28;20585;-56
2023/06/19 11:06:55;;;;;;;8.50;5.90;;;31.00;99.90;;;;;;5076207;28;20231;-54
2023/06/19 11:09:24;;;;;;;6.30;5.70;;;30.70;99.90;;;;;;5077256;28;20727;-54
2023/06/19 11:11:53;;;;;;;6.37;5.77;;;30.60;99.90;;;;;;5076622;28;20700;-54
2023/06/19 11:14:22;;;;;;;6.10;5.47;;;30.40;99.90;;;;;;5076603;28;20308;-54
2023/06/19 11:16:50;;;;;;;6.57;5.27;;;30.30;99.90;;;;;;5079926;28;20674;-55
2023/06/19 11:19:19;;;;;;;5.63;5.13;;;30.20;99.90;;;;;;5079894;28;20777;-55
2023/06/19 11:21:49;;;;;;;5.90;5.40;;;30.00;99.90;;;;;;5075653;28;20229;-54
2023/06/19 11:24:18;;;;;;;7.93;5.37;;;29.90;99.90;;;;;;5076850;28;20236;-54
2023/06/19 11:26:50;;;;;;;5.77;5.27;;;29.70;99.90;;;;;;5074936;28;20309;-54
2023/06/19 11:29:22;;;;;;;6.23;5.33;;;29.80;99.90;;;;;;5074810;28;20622;-53
2023/06/19 11:31:53;;;;;;;6.43;5.80;;;29.70;99.90;;;;;;5058042;28;20731;-53
2023/06/19 11:34:32;;;;;;;6.77;5.87;;;29.70;99.90;;;;;;5073756;28;20261;-52
2023/06/19 11:37:01;;;;;;;8.60;5.90;;;29.70;99.90;;;;;;5075986;28;20558;-52
2023/06/19 11:39:29;;;;;;;7.20;6.20;;;29.70;99.90;;;;;;5075876;28;20234;-52
2023/06/19 11:42:00;;;;;;;7.57;6.40;;;30.10;99.90;;;;;;5077958;28;20627;-56
2023/06/19 11:44:29;;;;;;;6.60;5.83;;;30.40;99.90;;;;;;5079678;28;20209;-54
2023/06/19 11:46:59;;;;;;;7.07;6.13;;;30.60;99.90;;;;;;5056973;28;20259;-54
2023/06/19 11:49:28;;;;;;;6.23;5.63;;;30.40;99.90;;;;;;5075293;28;20258;-56
2023/06/19 11:51:56;;;;;;;11.20;5.70;;;30.60;99.90;;;;;;5078506;28;20280;-55
2023/06/19 11:54:25;;;;;;;6.63;6.03;;;31.40;99.90;;;;;;5078418;28;20228;-55
2023/06/19 11:56:53;;;;;;;7.93;6.10;;;31.70;99.90;;;;;;5076894;28;20245;-53
2023/06/19 11:59:21;;;;;;;6.53;5.93;;;31.90;99.90;;;;;;5076744;28;20719;-54
2023/06/19 12:01:51;;;;;;;6.00;5.50;;;32.40;99.90;;;;;;5080899;28;20240;-51
2023/06/19 12:04:19;;;;;;;6.37;5.70;;;32.40;99.90;;;;;;5082746;28;20303;-55
2023/06/19 12:06:47;;;;;;;7.70;6.00;;;32.00;99.90;;;;;;5079086;28;20257;-54
2023/06/19 12:09:15;;;;;;;7.40;6.43;;;31.60;99.90;;;;;;5077407;28;20225;-54
2023/06/19 12:11:43;;;;;;;6.10;5.60;;;31.00;99.90;;;;;;5078427;28;20313;-54
2023/06/19 12:14:11;;;;;;;5.77;5.20;;;30.50;99.90;;;;;;5078615;28;20228;-53
2023/06/19 12:16:39;;;;;;;6.47;5.37;;;30.20;99.90;;;;;;5080490;28;20684;-55
2023/06/19 12:19:09;;;;;;;5.63;5.23;;;30.00;99.90;;;;;;5078494;28;20650;-54
2023/06/19 12:21:37;;;;;;;5.57;5.00;;;30.00;99.90;;;;;;5081929;28;20222;-55
2023/06/19 12:24:09;;;;;;;5.43;4.93;;;30.00;99.90;;;;;;5081654;28;21386;-53
2023/06/19 12:26:38;;;;;;;5.13;4.60;;;29.80;99.90;;;;;;5083164;28;20272;-53
2023/06/19 12:29:06;;;;;;;5.03;4.63;;;29.60;99.90;;;;;;5082043;28;20231;-55
2023/06/19 12:31:36;;;;;;;7.03;4.37;;;29.20;99.90;;;;;;5080124;28;20709;-53
2023/06/19 12:34:05;;;;;;;11.47;5.23;;;29.00;99.90;;;;;;5081832;28;20224;-56
2023/06/19 12:36:56;;;;;;;4.90;4.10;;;29.00;99.90;;;;;;5079370;28;20214;-53
2023/06/19 12:39:25;;;;;;;5.33;4.00;;;29.10;99.90;;;;;;5080191;28;20261;-54
2023/06/19 12:41:53;;;;;;;4.67;4.20;;;29.30;99.90;;;;;;5079529;28;20299;-54
2023/06/19 12:44:23;;;;;;;5.10;4.33;;;29.50;99.90;;;;;;5079329;28;20242;-54
2023/06/19 12:46:51;;;;;;;4.40;4.00;;;29.80;99.90;;;;;;5078982;28;20309;-53
2023/06/19 12:49:19;;;;;;;6.90;3.80;;;29.90;99.90;;;;;;5079061;28;20879;-53
2023/06/19 12:51:51;;;;;;;4.83;3.50;;;29.70;99.90;;;;;;5079356;28;20238;-56
2023/06/19 12:54:20;;;;;;;4.20;3.77;;;29.70;99.90;;;;;;5080746;28;20268;-55
2023/06/19 12:56:49;;;;;;;7.03;4.13;;;29.90;99.90;;;;;;5079458;28;20255;-55